Aline, Pennsylvania
Current Conditions -  °F | °C
As of 6:53 AM on Saturday 20 Dec 2014 (Local Time) from KSEG Reporting Station
Overcast Overcast  
Wind Chill: -1°   Ceiling: 2900
Heat Index: -1°   Visibility: 10mi
Dew Point: -7°   Wind: 3mph
Humidity: 66%   Direction: NA
Pressure: 30.26"   Gusts: NA
Location:  40.6989°N, 77.0073°W
Report Text: KSEG 201153Z AUTO VRB03KT 10SM OVC029 M01/M07 A3026 RMK AO2 SLP252 T10111067 10000 21011 50003
Loading
Personal Weather Stations






























Interactive Weather Map New forecast layout! Learn more

10-Day Weather Forecast

Advertisements
Track Severe Weather on mobile